Time;durP1;ratioP1;P1;durP2;ratioP2;P2;SDS_P1;SDS_P2;PMS_P1;PMS_P2;Temp;Humidity;BMP_temperature;BMP_pressure;BME280_temperature;BME280_humidity;BME280_pressure;Samples;Min_cycle;Max_cycle;Signal;HPM_P1;HPM_P2
2021/09/16 00:00:36;;;;;;;3.20;2.95;;;;;;;20.56;95.07;95538.69;5072207;28;20557;-83
2021/09/16 00:03:03;;;;;;;3.08;2.80;;;;;;;20.56;96.05;95536.88;5071877;28;20252;-83
2021/09/16 00:05:29;;;;;;;4.60;3.25;;;;;;;20.55;95.59;95534.50;5071848;28;20204;-84
2021/09/16 00:07:56;;;;;;;3.10;2.67;;;;;;;20.53;95.71;95533.94;5071952;28;20223;-84
2021/09/16 00:10:22;;;;;;;3.03;2.75;;;;;;;20.54;95.18;95541.53;5071779;28;20575;-84
2021/09/16 00:12:49;;;;;;;3.35;3.00;;;;;;;20.52;95.37;95538.38;5070362;28;20232;-83
2021/09/16 00:15:16;;;;;;;2.95;2.65;;;;;;;20.58;95.38;95544.47;5071420;28;20197;-84
2021/09/16 00:17:43;;;;;;;3.30;3.00;;;;;;;20.60;94.63;95542.38;5071446;28;20228;-84
2021/09/16 00:20:11;;;;;;;3.28;2.97;;;;;;;20.57;94.66;95538.47;5072288;28;20203;-84
2021/09/16 00:22:37;;;;;;;3.30;3.00;;;;;;;20.56;94.24;95547.34;5071892;28;20228;-84
2021/09/16 00:25:05;;;;;;;3.92;2.70;;;;;;;20.52;94.61;95548.03;5071553;28;20679;-84
2021/09/16 00:27:32;;;;;;;4.75;2.80;;;;;;;20.54;94.41;95540.75;5071677;28;20255;-84
2021/09/16 00:29:58;;;;;;;3.58;2.97;;;;;;;20.56;94.36;95531.63;5071450;28;20672;-83
2021/09/16 00:32:25;;;;;;;5.07;2.92;;;;;;;20.59;94.27;95540.84;5071711;28;20671;-83
2021/09/16 00:34:53;;;;;;;3.47;2.78;;;;;;;20.55;94.28;95537.91;5071342;28;20540;-84
2021/09/16 00:37:19;;;;;;;2.97;2.53;;;;;;;20.56;93.75;95528.22;5071073;28;20223;-83
2021/09/16 00:39:46;;;;;;;4.68;2.88;;;;;;;20.57;93.48;95525.38;5070481;28;20228;-83
2021/09/16 00:42:15;;;;;;;3.78;3.17;;;;;;;20.60;93.49;95521.47;5071528;28;20587;-84
2021/09/16 00:44:42;;;;;;;3.85;2.70;;;;;;;20.54;94.96;95523.22;5071282;28;20228;-83
2021/09/16 00:47:09;;;;;;;4.30;3.20;;;;;;;20.56;94.42;95518.56;5071407;28;20249;-83
2021/09/16 00:49:35;;;;;;;3.88;2.80;;;;;;;20.50;95.28;95519.50;5071186;28;20196;-83
2021/09/16 00:52:05;;;;;;;2.97;2.50;;;;;;;20.53;94.35;95526.88;5070966;28;20197;-83
2021/09/16 00:54:34;;;;;;;3.25;2.88;;;;;;;20.48;95.19;95518.16;5071188;28;20201;-83
2021/09/16 00:57:02;;;;;;;3.42;2.83;;;;;;;20.49;95.09;95527.59;5071120;28;20221;-84
2021/09/16 00:59:30;;;;;;;2.88;2.67;;;;;;;20.47;95.66;95530.44;5071227;28;20234;-83
2021/09/16 01:01:56;;;;;;;3.58;2.67;;;;;;;20.47;95.66;95530.44;5071335;28;20208;-83
2021/09/16 01:04:23;;;;;;;4.80;3.35;;;;;;;20.54;95.00;95532.91;5066268;28;20194;-84
2021/09/16 01:06:49;;;;;;;3.65;3.00;;;;;;;20.53;94.77;95531.31;5061430;28;20217;-83
2021/09/16 01:09:17;;;;;;;3.20;2.90;;;;;;;20.49;94.82;95530.22;5053502;28;20224;-84
2021/09/16 01:11:45;;;;;;;3.08;2.78;;;;;;;20.48;94.70;95531.25;5071024;28;20251;-83
2021/09/16 01:14:11;;;;;;;3.47;2.80;;;;;;;20.50;94.40;95532.59;5070418;28;20197;-84
2021/09/16 01:16:38;;;;;;;2.90;2.60;;;;;;;20.51;94.27;95541.22;5070610;28;20719;-83
2021/09/16 01:19:04;;;;;;;3.20;2.90;;;;;;;20.51;93.78;95536.00;5070432;28;20254;-83
2021/09/16 01:21:31;;;;;;;3.25;2.95;;;;;;;20.48;93.91;95536.47;5070801;28;20283;-84
2021/09/16 01:24:01;;;;;;;4.82;3.30;;;;;;;20.47;93.71;95540.91;5070306;28;20221;-82
2021/09/16 01:26:28;;;;;;;3.17;2.85;;;;;;;20.46;94.28;95536.72;5070391;28;20320;-83
2021/09/16 01:28:54;;;;;;;3.95;3.05;;;;;;;20.46;94.85;95541.16;5070449;28;20212;-83
2021/09/16 01:31:34;;;;;;;3.95;3.00;;;;;;;20.44;95.44;95540.59;5070398;28;20205;-83
2021/09/16 01:34:03;;;;;;;4.28;3.10;;;;;;;20.48;94.25;95534.66;5070105;28;20214;-83
2021/09/16 01:36:30;;;;;;;3.95;3.08;;;;;;;20.50;93.85;95540.44;5070672;28;20278;-82
2021/09/16 01:38:56;;;;;;;3.05;2.70;;;;;;;20.42;94.82;95532.97;5070225;28;20205;-83
2021/09/16 01:41:24;;;;;;;3.35;2.80;;;;;;;20.40;94.48;95524.56;5069955;28;20730;-83
2021/09/16 01:43:51;;;;;;;5.78;2.80;;;;;;;20.31;95.49;95521.56;5070128;28;20247;-83
2021/09/16 01:46:17;;;;;;;3.25;2.92;;;;;;;20.29;95.80;95520.22;5069707;28;20224;-83
2021/09/16 01:48:44;;;;;;;3.30;3.00;;;;;;;20.30;94.97;95506.09;5070108;28;20197;-83
2021/09/16 01:51:10;;;;;;;4.78;3.15;;;;;;;20.21;95.91;95518.78;5069461;28;20228;-83
2021/09/16 01:53:37;;;;;;;5.15;2.80;;;;;;;20.24;95.68;95512.28;5069954;28;20197;-83
2021/09/16 01:56:03;;;;;;;4.32;3.28;;;;;;;20.28;95.59;95522.03;5069961;28;20212;-83
2021/09/16 01:58:31;;;;;;;6.05;3.13;;;;;;;20.32;95.08;95525.75;5069172;28;20201;-83
2021/09/16 02:00:58;;;;;;;3.28;2.97;;;;;;;20.35;94.08;95527.09;5069900;28;20579;-83
2021/09/16 02:03:24;;;;;;;4.32;3.22;;;;;;;20.35;94.03;95520.06;5069808;28;20231;-83
2021/09/16 02:05:51;;;;;;;3.63;2.88;;;;;;;20.35;93.54;95514.81;5069527;28;20197;-83
2021/09/16 02:08:17;;;;;;;4.10;2.95;;;;;;;20.34;93.63;95507.22;5069467;28;20220;-83
2021/09/16 02:10:45;;;;;;;3.25;2.90;;;;;;;20.34;92.96;95499.38;5054547;28;20204;-84
2021/09/16 02:13:11;;;;;;;4.13;3.20;;;;;;;20.22;93.52;95502.06;5065276;28;20594;-83
2021/09/16 02:15:39;;;;;;;4.93;3.40;;;;;;;20.15;93.91;95496.22;5069337;28;20205;-83
2021/09/16 02:18:06;;;;;;;5.50;3.15;;;;;;;20.13;93.71;95495.66;5069541;28;20251;-83
2021/09/16 02:20:32;;;;;;;5.05;3.30;;;;;;;20.10;94.55;95505.78;5069684;28;20282;-85
2021/09/16 02:22:59;;;;;;;3.47;3.03;;;;;;;20.13;94.55;95503.50;5069885;28;20221;-82
2021/09/16 02:25:25;;;;;;;3.30;2.88;;;;;;;20.17;93.92;95503.81;5069252;28;20205;-83
2021/09/16 02:27:52;;;;;;;4.65;3.30;;;;;;;20.08;94.60;95500.78;5069278;28;20591;-82
2021/09/16 02:30:18;;;;;;;4.32;2.92;;;;;;;19.94;95.56;95499.53;5069463;28;20568;-83
2021/09/16 02:32:46;;;;;;;6.72;3.00;;;;;;;19.96;95.67;95487.03;5069545;28;20208;-83
2021/09/16 02:35:13;;;;;;;4.22;3.10;;;;;;;20.01;94.55;95495.72;5069098;28;20258;-83
2021/09/16 02:37:40;;;;;;;3.28;2.97;;;;;;;19.98;94.79;95505.88;5069260;28;20299;-83
2021/09/16 02:40:09;;;;;;;5.25;3.05;;;;;;;19.95;95.16;95507.13;5068792;28;20232;-84
2021/09/16 02:42:36;;;;;;;3.33;3.03;;;;;;;19.98;94.48;95517.13;5069244;28;20197;-83
2021/09/16 02:45:03;;;;;;;3.78;2.85;;;;;;;19.96;94.88;95521.00;5068970;28;20204;-83
2021/09/16 02:47:30;;;;;;;3.17;2.88;;;;;;;19.98;94.79;95517.13;5069446;28;20719;-82
2021/09/16 02:49:57;;;;;;;5.20;3.17;;;;;;;20.02;94.13;95509.56;5069187;28;20200;-83
2021/09/16 02:52:24;;;;;;;4.07;3.10;;;;;;;20.04;93.83;95510.13;5069258;28;20208;-83
2021/09/16 02:54:50;;;;;;;3.30;3.00;;;;;;;19.98;93.77;95504.06;5068786;28;20205;-83
2021/09/16 02:57:17;;;;;;;4.05;2.92;;;;;;;19.90;94.56;95495.81;5069063;28;20575;-83
2021/09/16 02:59:43;;;;;;;3.17;2.85;;;;;;;19.82;94.84;95504.81;5069524;28;20205;-83
2021/09/16 03:02:12;;;;;;;3.10;2.78;;;;;;;19.81;94.65;95505.88;5069545;28;20219;-83
2021/09/16 03:04:38;;;;;;;4.00;3.20;;;;;;;19.85;94.86;95508.78;5072767;28;20225;-83
2021/09/16 03:07:06;;;;;;;3.45;3.15;;;;;;;19.88;94.67;95500.47;5072931;28;20227;-83
2021/09/16 03:09:32;;;;;;;4.97;2.88;;;;;;;19.87;94.44;95501.50;5067520;28;20569;-83
2021/09/16 03:11:59;;;;;;;3.22;2.75;;;;;;;19.92;94.66;95504.19;5058636;28;20227;-83
2021/09/16 03:14:25;;;;;;;4.43;3.08;;;;;;;19.90;94.61;95501.81;5072517;28;20219;-83
2021/09/16 03:16:52;;;;;;;4.13;2.85;;;;;;;19.90;94.22;95509.66;5072785;28;20255;-84
2021/09/16 03:19:18;;;;;;;5.03;3.30;;;;;;;19.93;93.90;95509.19;5072803;28;20227;-83
2021/09/16 03:21:45;;;;;;;5.80;2.70;;;;;;;19.92;93.99;95509.44;5072653;28;20208;-84
2021/09/16 03:24:13;;;;;;;4.35;2.80;;;;;;;19.92;94.52;95506.81;5072042;28;20217;-83
2021/09/16 03:26:39;;;;;;;4.40;3.35;;;;;;;19.92;94.11;95505.00;5072391;28;20227;-83
2021/09/16 03:29:06;;;;;;;4.40;3.08;;;;;;;19.90;94.29;95509.66;5072613;28;20556;-83
2021/09/16 03:31:32;;;;;;;3.45;2.80;;;;;;;19.96;93.63;95505.31;5072260;28;20205;-83
2021/09/16 03:33:59;;;;;;;5.93;2.97;;;;;;;19.93;94.71;95505.78;5072221;28;20589;-83
2021/09/16 03:36:26;;;;;;;3.72;2.90;;;;;;;19.98;94.07;95504.06;5072165;28;20224;-83
2021/09/16 03:38:52;;;;;;;5.47;3.30;;;;;;;19.92;94.60;95507.59;5072279;28;20255;-83
2021/09/16 03:41:20;;;;;;;4.28;3.40;;;;;;;19.95;93.89;95501.91;5072066;28;20236;-83
2021/09/16 03:43:46;;;;;;;3.63;3.15;;;;;;;19.99;93.67;95500.41;5072458;28;20574;-83
2021/09/16 03:46:13;;;;;;;4.47;3.28;;;;;;;19.99;93.53;95500.41;5071266;28;20567;-82
2021/09/16 03:48:39;;;;;;;2.97;2.72;;;;;;;19.96;93.54;95506.09;5072323;28;20567;-83
2021/09/16 03:51:06;;;;;;;4.20;3.10;;;;;;;19.86;94.54;95503.31;5071804;28;20556;-83
2021/09/16 03:53:32;;;;;;;3.58;3.28;;;;;;;19.88;94.37;95511.72;5058448;28;20225;-83
2021/09/16 03:55:59;;;;;;;4.70;3.00;;;;;;;19.82;94.65;95498.81;5051784;28;20205;-83
2021/09/16 03:58:27;;;;;;;4.25;3.08;;;;;;;19.80;94.96;95504.28;5052101;28;20228;-83
2021/09/16 04:00:54;;;;;;;3.38;3.08;;;;;;;19.79;95.15;95510.53;5051690;28;20208;-83
2021/09/16 04:03:22;;;;;;;3.53;3.20;;;;;;;19.73;96.19;95497.59;5052179;28;20229;-82
2021/09/16 04:05:49;;;;;;;4.00;3.20;;;;;;;19.78;95.77;95498.50;5058912;28;20208;-82
2021/09/16 04:08:15;;;;;;;4.20;2.90;;;;;;;19.73;95.79;95495.00;5062096;28;20738;-83
2021/09/16 04:10:42;;;;;;;4.47;2.80;;;;;;;19.79;95.25;95494.84;5066193;28;20201;-83
2021/09/16 04:13:08;;;;;;;3.50;3.20;;;;;;;19.78;95.28;95498.50;5071967;28;20281;-83
2021/09/16 04:15:36;;;;;;;4.57;2.95;;;;;;;19.80;94.58;95496.44;5070646;28;20211;-83
2021/09/16 04:18:03;;;;;;;3.72;3.00;;;;;;;19.82;94.25;95494.34;5071633;28;20235;-83
2021/09/16 04:20:29;;;;;;;3.10;2.80;;;;;;;19.81;94.53;95492.81;5071819;28;20201;-83
2021/09/16 04:22:56;;;;;;;3.45;3.15;;;;;;;19.85;94.05;95495.72;5066491;28;20198;-83
2021/09/16 04:25:22;;;;;;;4.40;3.05;;;;;;;19.86;93.39;95489.44;5051928;28;20213;-82
2021/09/16 04:27:49;;;;;;;3.95;3.50;;;;;;;19.85;93.35;95493.88;5051997;28;20731;-83
2021/09/16 04:30:15;;;;;;;4.65;3.20;;;;;;;19.84;93.63;95475.84;5052257;28;20212;-82
2021/09/16 04:32:43;;;;;;;3.50;3.20;;;;;;;19.83;93.15;95484.69;5051579;28;20201;-83
2021/09/16 04:35:10;;;;;;;3.63;2.92;;;;;;;19.84;93.38;95487.06;5051300;28;20202;-82
2021/09/16 04:37:37;;;;;;;3.67;3.33;;;;;;;19.86;93.49;95477.19;5054299;28;20703;-83
2021/09/16 04:40:05;;;;;;;4.75;3.58;;;;;;;19.73;95.06;95479.31;5068416;28;20224;-83
2021/09/16 04:42:32;;;;;;;4.30;3.08;;;;;;;19.70;95.65;95485.00;5064150;28;20209;-83
2021/09/16 04:44:59;;;;;;;3.75;2.92;;;;;;;19.76;95.15;95486.69;5056155;28;20229;-83
2021/09/16 04:47:25;;;;;;;4.53;3.22;;;;;;;19.78;94.94;95484.63;5064441;28;20714;-83
2021/09/16 04:49:53;;;;;;;4.63;3.28;;;;;;;19.80;94.91;95482.59;5063843;28;20209;-83
2021/09/16 04:52:20;;;;;;;5.63;3.33;;;;;;;19.76;95.46;95484.06;5054931;28;20197;-82
2021/09/16 04:54:46;;;;;;;5.32;3.45;;;;;;;19.83;94.96;95489.91;5071668;28;20204;-83
2021/09/16 04:57:13;;;;;;;6.32;3.50;;;;;;;19.88;94.37;95490.00;5071601;28;20419;-82
2021/09/16 04:59:39;;;;;;;6.18;3.20;;;;;;;19.88;94.51;95485.59;5071544;28;20201;-83
2021/09/16 05:02:05;;;;;;;3.72;3.33;;;;;;;19.92;95.11;95491.13;5072134;28;20559;-83
2021/09/16 05:04:32;;;;;;;5.13;3.70;;;;;;;19.90;94.75;95487.97;5071315;28;20276;-83
2021/09/16 05:07:00;;;;;;;4.05;3.30;;;;;;;19.90;94.34;95483.53;5070981;28;20220;-83
2021/09/16 05:09:26;;;;;;;5.70;3.40;;;;;;;19.86;95.39;95492.84;5070929;28;20664;-83
2021/09/16 05:11:53;;;;;;;5.03;3.30;;;;;;;19.87;95.57;95493.66;5067913;28;21888;-83
2021/09/16 05:14:44;;;;;;;56.80;51.40;;;;;;;19.87;95.33;95494.44;5052821;28;20194;-83
2021/09/16 05:17:23;;;;;;;37.67;34.00;;;;;;;19.79;96.37;95500.06;5051045;28;20316;-83
2021/09/16 05:20:05;;;;;;;9.63;8.73;;;;;;;19.87;94.85;95510.13;5059375;28;20204;-83
2021/09/16 05:22:33;;;;;;;4.75;4.10;;;;;;;19.83;96.80;95513.44;5065754;28;20209;-85
2021/09/16 05:25:00;;;;;;;5.07;3.35;;;;;;;19.88;94.80;95516.94;5067907;28;20213;-85
2021/09/16 05:27:26;;;;;;;4.03;3.65;;;;;;;19.83;96.22;95510.81;5061387;28;20228;-85
2021/09/16 05:30:22;;;;;;;3.53;3.22;;;;;;;19.85;96.76;95506.16;5069276;28;20255;-86
2021/09/16 05:32:56;;;;;;;5.55;3.75;;;;;;;19.89;97.14;95512.50;4987430;28;20235;-83
2021/09/16 05:35:36;;;;;;;4.63;3.10;;;;;;;19.88;96.79;95521.38;5062139;28;20200;-82
2021/09/16 05:38:27;;;;;;;4.55;3.22;;;;;;;19.94;95.78;95518.63;5063646;28;20210;-83
2021/09/16 05:40:58;;;;;;;9.52;8.07;;;;;;;20.01;95.55;95518.47;5068650;28;20208;-83
2021/09/16 05:43:56;;;;;;;10.18;7.72;;;;;;;20.03;94.78;95521.63;5067928;28;20224;-83
2021/09/16 05:46:34;;;;;;;7.10;3.78;;;;;;;19.99;94.31;95517.91;5069588;28;20320;-83
2021/09/16 05:49:31;;;;;;;4.03;3.25;;;;;;;20.00;94.39;95515.06;5069419;28;20200;-83
2021/09/16 05:55:11;;;;;;;6.20;5.68;;;;;;;19.96;96.50;95521.78;5047380;28;20201;-83
2021/09/16 05:57:55;;;;;;;5.47;4.47;;;;;;;20.00;96.34;95522.91;5049320;28;20222;-83
2021/09/16 06:00:28;;;;;;;5.57;3.88;;;;;;;20.00;96.64;95524.72;5047614;28;20193;-82
2021/09/16 06:02:56;;;;;;;4.20;3.28;;;;;;;20.04;95.80;95536.28;5049354;28;20814;-83
2021/09/16 06:05:35;;;;;;;5.15;3.40;;;;;;;20.04;96.67;95541.50;5049028;28;20217;-83
2021/09/16 06:11:33;;;;;;;4.50;3.38;;;;;;;20.10;95.64;95540.56;4968957;28;20565;-84
2021/09/16 06:13:59;;;;;;;4.13;3.30;;;;;;;20.12;96.51;95538.50;5068918;28;20215;-84
2021/09/16 06:16:26;;;;;;;4.10;3.40;;;;;;;20.16;95.76;95531.00;5068467;28;20259;-84
2021/09/16 06:18:54;;;;;;;5.10;3.28;;;;;;;20.18;95.71;95539.41;5068671;28;20196;-85
2021/09/16 06:21:21;;;;;;;4.38;3.22;;;;;;;20.16;95.83;95534.41;5067214;28;20295;-85
2021/09/16 06:23:51;;;;;;;3.53;3.20;;;;;;;20.17;95.72;95543.03;5062287;28;20221;-84
2021/09/16 06:26:17;;;;;;;5.47;2.92;;;;;;;20.17;95.38;95546.44;5064273;28;20196;-84
2021/09/16 06:28:45;;;;;;;4.75;3.20;;;;;;;20.22;95.74;95548.31;5062439;28;20200;-84
2021/09/16 06:31:13;;;;;;;6.57;3.67;;;;;;;20.23;96.32;95545.47;5068413;28;20201;-85
2021/09/16 06:33:40;;;;;;;4.07;3.67;;;;;;;20.24;97.04;95547.06;5068844;28;20196;-84
2021/09/16 06:36:06;;;;;;;4.80;3.45;;;;;;;20.19;98.28;95539.16;5068675;28;20196;-85
2021/09/16 06:38:33;;;;;;;4.50;3.60;;;;;;;20.18;98.39;95532.34;5060155;28;20550;-85
2021/09/16 06:40:59;;;;;;;4.18;3.25;;;;;;;20.22;97.73;95536.03;5066482;28;20587;-84
2021/09/16 06:43:26;;;;;;;4.82;3.40;;;;;;;20.28;97.57;95531.69;5072406;28;20204;-84
2021/09/16 06:45:54;;;;;;;5.28;3.53;;;;;;;20.31;97.70;95532.00;5072393;28;20216;-85
2021/09/16 06:48:20;;;;;;;7.93;3.50;;;;;;;20.34;97.50;95533.38;5072064;28;20224;-84
2021/09/16 06:50:47;;;;;;;4.88;3.70;;;;;;;20.40;97.85;95535.03;5072087;28;20679;-85
2021/09/16 06:53:13;;;;;;;6.45;3.38;;;;;;;20.44;98.08;95535.34;5072387;28;20192;-85
2021/09/16 06:55:40;;;;;;;4.25;3.53;;;;;;;20.41;98.41;95527.97;5072520;28;20192;-85
2021/09/16 06:58:06;;;;;;;13.88;10.05;;;;;;;20.41;98.69;95525.38;5072205;28;20223;-84
2021/09/16 07:00:33;;;;;;;9.65;8.50;;;;;;;20.43;99.76;95542.41;5071444;28;20563;-84
2021/09/16 07:03:01;;;;;;;5.82;4.10;;;;;;;20.49;100.00;95543.28;5072290;28;20204;-84
2021/09/16 07:05:27;;;;;;;4.93;3.90;;;;;;;20.53;99.88;95550.44;5071901;28;20226;-85
2021/09/16 07:07:54;;;;;;;5.13;3.60;;;;;;;20.62;99.30;95548.97;5071937;28;20227;-85
2021/09/16 07:10:20;;;;;;;4.70;3.92;;;;;;;20.66;99.75;95547.47;5071135;28;20205;-85
2021/09/16 07:12:47;;;;;;;4.25;3.50;;;;;;;20.87;98.72;95545.13;5071748;28;20201;-84
2021/09/16 07:15:13;;;;;;;4.63;3.00;;;;;;;21.36;95.16;95544.19;5068033;28;20288;-85
2021/09/16 07:17:40;;;;;;;3.90;3.50;;;;;;;21.52;93.23;95547.00;5067192;28;20232;-84
2021/09/16 07:20:09;;;;;;;3.92;3.50;;;;;;;21.56;92.91;95548.06;5065082;28;20197;-84
2021/09/16 07:22:35;;;;;;;4.70;3.72;;;;;;;21.57;92.02;95554.91;5067955;28;20212;-84
2021/09/16 07:25:02;;;;;;;4.40;3.70;;;;;;;21.54;92.31;95556.22;5071484;28;20224;-84
2021/09/16 07:27:36;;;;;;;3.88;3.42;;;;;;;21.58;92.48;95549.41;5071216;28;20217;-84
2021/09/16 07:30:05;;;;;;;5.43;3.15;;;;;;;21.58;92.39;95549.41;5070914;28;20808;-85
2021/09/16 07:32:39;;;;;;;4.63;3.40;;;;;;;21.67;91.27;95560.25;5071658;28;20291;-85
2021/09/16 07:35:15;;;;;;;6.28;3.83;;;;;;;21.66;92.16;95550.81;5071299;28;20702;-85
2021/09/16 07:37:41;;;;;;;4.18;3.63;;;;;;;21.58;92.22;95552.03;5071307;28;20216;-84
2021/09/16 07:40:09;;;;;;;4.13;3.50;;;;;;;21.53;91.77;95553.84;5059503;28;20192;-85
2021/09/16 07:42:36;;;;;;;4.55;3.22;;;;;;;21.53;91.88;95549.38;5055100;28;20201;-84
2021/09/16 07:45:03;;;;;;;13.75;12.32;;;;;;;21.51;91.87;95555.91;5070813;28;20217;-83
2021/09/16 07:47:30;;;;;;;5.90;4.63;;;;;;;21.52;92.32;95553.03;5069062;28;20213;-84
2021/09/16 07:49:56;;;;;;;10.45;4.25;;;;;;;21.47;93.52;95555.59;5059560;28;20202;-84
2021/09/16 07:52:24;;;;;;;3.97;3.40;;;;;;;21.47;94.01;95554.81;5051147;28;20206;-85
2021/09/16 07:54:51;;;;;;;5.97;3.50;;;;;;;21.40;94.37;95554.97;5050753;28;20213;-84
2021/09/16 07:57:17;;;;;;;5.13;3.60;;;;;;;21.38;94.06;95552.59;5050436;28;20219;-84
2021/09/16 07:59:44;;;;;;;6.63;3.60;;;;;;;21.27;94.48;95560.59;5050779;28;20556;-84
2021/09/16 08:02:10;;;;;;;4.03;3.50;;;;;;;21.17;94.89;95561.22;5065185;28;20204;-84
2021/09/16 08:04:37;;;;;;;4.05;3.65;;;;;;;21.16;94.26;95556.25;5070346;28;20231;-85
2021/09/16 08:07:03;;;;;;;4.15;3.47;;;;;;;21.19;94.54;95553.13;5071175;28;20225;-84
2021/09/16 08:09:34;;;;;;;5.38;3.80;;;;;;;21.08;96.79;95567.13;5069948;28;20197;-85
2021/09/16 08:12:00;;;;;;;4.68;3.55;;;;;;;21.08;95.53;95565.31;5065100;28;20272;-84
2021/09/16 08:14:27;;;;;;;4.10;3.70;;;;;;;21.02;95.63;95566.28;5060967;28;20189;-84
2021/09/16 08:16:54;;;;;;;4.70;3.63;;;;;;;20.89;96.65;95570.03;5070581;28;20244;-85
2021/09/16 08:19:20;;;;;;;4.97;3.70;;;;;;;20.93;97.04;95565.13;5070385;28;20228;-84
2021/09/16 08:21:47;;;;;;;13.18;3.92;;;;;;;20.98;97.45;95562.53;5069945;28;20258;-85
2021/09/16 08:24:13;;;;;;;4.43;3.47;;;;;;;21.03;97.56;95560.00;5070245;28;20219;-85
2021/09/16 08:26:41;;;;;;;5.28;3.75;;;;;;;21.00;97.84;95563.09;5070417;28;20216;-84
2021/09/16 08:29:08;;;;;;;5.75;4.32;;;;;;;21.05;97.65;95571.03;5050679;28;20598;-84
2021/09/16 08:31:35;;;;;;;3.97;3.58;;;;;;;20.98;98.03;95563.34;5061440;28;20231;-84
2021/09/16 08:34:01;;;;;;;3.90;3.60;;;;;;;20.95;97.45;95563.84;5060078;28;20194;-84
2021/09/16 08:36:28;;;;;;;7.40;4.28;;;;;;;20.83;97.05;95567.56;5062624;28;20637;-85
2021/09/16 08:38:54;;;;;;;5.38;4.88;;;;;;;20.83;97.47;95560.53;5061529;28;20204;-84
2021/09/16 08:41:21;;;;;;;4.95;3.90;;;;;;;20.83;95.81;95567.56;5063663;28;20831;-85
2021/09/16 08:43:51;;;;;;;5.10;4.60;;;;;;;20.82;97.72;95566.78;5070009;28;20204;-84
2021/09/16 08:47:13;;;;;;;6.78;3.83;;;;;;;20.91;98.32;95560.13;5071953;28;20228;-88
2021/09/16 08:52:48;;;;;;;4.22;3.83;;;;;;;21.27;95.71;95568.44;5048363;28;20213;-81
2021/09/16 08:55:17;;;;;;;4.53;4.03;;;;;;;21.33;94.53;95567.50;5057278;28;20203;-81
2021/09/16 08:57:46;;;;;;;8.43;3.83;;;;;;;21.38;94.93;95568.31;5057916;28;20221;-82
2021/09/16 09:00:16;;;;;;;4.20;3.67;;;;;;;21.40;95.09;95564.66;5056689;28;20201;-82
2021/09/16 09:02:44;;;;;;;5.85;3.70;;;;;;;21.40;96.08;95562.84;5057353;28;20213;-83
2021/09/16 09:05:15;;;;;;;4.20;3.80;;;;;;;21.42;96.16;95566.00;5057727;28;20244;-83
2021/09/16 09:07:43;;;;;;;4.43;4.03;;;;;;;21.46;95.67;95556.63;5058072;28;20229;-82
2021/09/16 09:10:12;;;;;;;6.45;4.10;;;;;;;21.54;95.98;95556.22;5055786;28;20193;-83
2021/09/16 09:12:39;;;;;;;4.53;4.13;;;;;;;21.63;95.64;95564.41;5056618;28;20193;-82
2021/09/16 09:15:10;;;;;;;4.32;3.53;;;;;;;21.64;95.27;95555.50;5071671;28;20203;-83
2021/09/16 09:17:38;;;;;;;4.78;3.65;;;;;;;21.58;94.06;95561.72;5075668;28;20252;-83
2021/09/16 09:20:08;;;;;;;4.63;3.75;;;;;;;21.40;93.93;95552.34;5075547;28;20379;-83
2021/09/16 09:22:37;;;;;;;3.88;3.47;;;;;;;21.37;95.98;95558.88;5076146;28;20253;-83
2021/09/16 09:25:06;;;;;;;6.00;4.18;;;;;;;21.42;94.32;95554.75;5075075;28;20217;-83
2021/09/16 09:27:35;;;;;;;5.57;3.70;;;;;;;21.48;94.53;95556.38;5059051;28;20224;-84
2021/09/16 09:30:07;;;;;;;4.47;4.00;;;;;;;21.50;94.98;95555.09;5053055;28;20198;-84
2021/09/16 09:32:47;;;;;;;5.90;3.95;;;;;;;21.51;94.83;95551.44;5059929;28;20270;-84
2021/09/16 09:35:32;;;;;;;5.22;3.92;;;;;;;21.46;95.46;95553.22;5069780;28;20207;-84
2021/09/16 09:38:01;;;;;;;7.32;3.33;;;;;;;21.44;95.60;95547.44;5059250;28;20216;-84
2021/09/16 09:40:29;;;;;;;4.45;3.90;;;;;;;21.38;95.14;95549.19;5048843;28;20201;-84
2021/09/16 09:43:16;;;;;;;4.20;3.25;;;;;;;21.38;94.15;95549.19;5049170;28;20672;-85
2021/09/16 09:46:02;;;;;;;4.25;3.10;;;;;;;21.35;92.15;95544.47;5048705;28;20232;-85
2021/09/16 09:48:31;;;;;;;7.05;3.40;;;;;;;21.33;93.00;95541.28;5049126;28;20225;-85
2021/09/16 09:50:59;;;;;;;9.52;8.52;;;;;;;21.32;93.59;95534.47;5048660;28;20858;-85
2021/09/16 09:53:25;;;;;;;5.40;4.90;;;;;;;21.31;93.88;95544.16;5062061;28;20280;-85
2021/09/16 09:55:52;;;;;;;5.10;3.85;;;;;;;21.26;94.71;95545.91;5062254;28;20216;-84
2021/09/16 09:58:31;;;;;;;4.43;3.85;;;;;;;21.17;94.51;95534.25;5049545;28;20221;-86
2021/09/16 10:00:57;;;;;;;5.03;3.60;;;;;;;21.06;95.84;95541.19;5048441;28;20680;-85
2021/09/16 10:03:28;;;;;;;5.53;3.08;;;;;;;21.02;95.69;95535.66;5049160;28;20201;-83
2021/09/16 10:06:11;;;;;;;4.57;3.40;;;;;;;21.10;95.00;95546.75;5048658;28;20306;-85
2021/09/16 10:08:40;;;;;;;4.00;3.30;;;;;;;21.20;95.74;95544.25;5049862;28;20826;-84
2021/09/16 10:11:07;;;;;;;5.00;3.78;;;;;;;21.29;95.44;95541.00;5048156;28;20236;-85
2021/09/16 10:13:34;;;;;;;3.72;3.30;;;;;;;21.41;95.39;95542.69;5067133;28;20199;-85
2021/09/16 10:16:04;;;;;;;3.67;3.35;;;;;;;21.42;95.56;95539.81;5064214;28;20559;-85
2021/09/16 10:18:32;;;;;;;5.88;3.17;;;;;;;21.42;95.29;95539.81;5053809;28;20256;-84
2021/09/16 10:21:02;;;;;;;4.65;3.53;;;;;;;21.32;94.10;95539.72;5047701;28;20205;-84
2021/09/16 10:23:29;;;;;;;4.82;3.30;;;;;;;21.27;96.04;95552.75;5049099;28;20216;-85
2021/09/16 10:25:56;;;;;;;7.40;3.65;;;;;;;21.34;95.65;95542.88;5063624;28;20225;-84
2021/09/16 10:28:23;;;;;;;4.93;3.40;;;;;;;21.24;94.45;95550.59;5068632;28;20224;-83
2021/09/16 10:30:51;;;;;;;4.45;3.42;;;;;;;21.25;95.45;95554.81;5067935;28;20207;-84
2021/09/16 10:33:19;;;;;;;3.55;3.20;;;;;;;21.07;93.75;95547.22;5068641;28;20192;-84
2021/09/16 10:35:47;;;;;;;4.57;3.33;;;;;;;21.12;94.06;95544.69;5069888;28;20221;-85
2021/09/16 10:38:23;;;;;;;3.70;3.28;;;;;;;21.21;93.92;95557.13;5069312;28;20216;-84
2021/09/16 10:41:09;;;;;;;4.07;3.47;;;;;;;21.32;93.87;95548.34;5068836;28;20204;-83
2021/09/16 10:43:36;;;;;;;4.22;3.63;;;;;;;21.44;93.94;95540.38;5068677;28;20568;-83
2021/09/16 10:46:22;;;;;;;4.10;3.80;;;;;;;21.48;92.32;95543.28;5068440;28;20231;-84
2021/09/16 10:48:48;;;;;;;4.60;3.88;;;;;;;21.50;92.84;95528.91;5068472;28;20192;-83
2021/09/16 10:51:15;;;;;;;4.30;3.90;;;;;;;21.58;92.92;95527.66;5068505;28;20295;-83
2021/09/16 10:53:45;;;;;;;5.93;3.70;;;;;;;21.56;92.92;95533.16;5068494;28;20288;-84
2021/09/16 10:56:39;;;;;;;3.63;3.33;;;;;;;21.48;91.99;95530.97;5068002;28;20197;-83
2021/09/16 10:59:06;;;;;;;5.72;3.90;;;;;;;21.45;93.61;95526.22;5044335;28;20198;-84
2021/09/16 11:01:55;;;;;;;5.35;3.72;;;;;;;21.43;92.84;95527.50;5048373;28;20687;-83
2021/09/16 11:04:25;;;;;;;4.30;3.60;;;;;;;21.37;92.92;95516.16;5048106;28;20205;-85
2021/09/16 11:06:51;;;;;;;4.07;3.67;;;;;;;21.38;93.75;95518.56;5047477;28;20659;-83
2021/09/16 11:09:29;;;;;;;4.90;3.65;;;;;;;21.41;93.07;95517.28;5048643;28;20212;-83
2021/09/16 11:12:03;;;;;;;5.82;3.88;;;;;;;21.26;93.70;95520.53;5052958;28;20189;-83
2021/09/16 11:14:33;;;;;;;4.10;3.58;;;;;;;21.17;94.57;95514.09;5057504;28;20200;-83
2021/09/16 11:17:00;;;;;;;5.22;4.07;;;;;;;21.23;95.04;95520.22;5048054;28;20236;-83
2021/09/16 11:19:28;;;;;;;4.32;3.90;;;;;;;21.24;95.36;95519.19;5048423;28;20205;-84
2021/09/16 11:22:00;;;;;;;5.25;4.00;;;;;;;21.15;95.22;95523.25;5047385;28;20198;-83
2021/09/16 11:24:33;;;;;;;5.57;4.07;;;;;;;21.19;95.46;95516.47;5053116;28;20201;-83
2021/09/16 11:26:59;;;;;;;4.63;4.18;;;;;;;21.29;95.45;95520.03;5071392;28;20711;-84
2021/09/16 11:29:26;;;;;;;5.43;4.28;;;;;;;21.24;95.45;95519.97;5071496;28;20291;-84
2021/09/16 11:32:02;;;;;;;4.40;3.90;;;;;;;21.34;94.07;95511.44;5071194;28;20213;-84
2021/09/16 11:34:28;;;;;;;4.80;3.88;;;;;;;21.45;95.06;95501.84;5071346;28;20205;-84
2021/09/16 11:37:09;;;;;;;6.20;4.18;;;;;;;21.46;93.86;95506.06;5071361;28;20220;-83
2021/09/16 11:39:38;;;;;;;6.47;4.00;;;;;;;21.54;94.54;95500.38;5070156;28;20209;-84
2021/09/16 11:42:14;;;;;;;5.35;4.18;;;;;;;21.56;95.06;95493.84;5070463;28;20215;-84
2021/09/16 11:45:10;;;;;;;7.25;4.65;;;;;;;21.62;94.73;95489.44;5070867;28;20197;-84
2021/09/16 11:47:53;;;;;;;4.90;3.90;;;;;;;21.57;93.83;95492.81;5071260;28;20748;-84
2021/09/16 11:50:44;;;;;;;4.10;3.60;;;;;;;21.49;93.22;95492.47;5070800;28;20205;-84
2021/09/16 11:53:18;;;;;;;5.78;3.60;;;;;;;21.51;94.85;95493.81;5071342;28;20254;-85